Spelter City, Oklahoma
Current Conditions -  °F | °C
As of 10:15 AM on Friday 24 Oct 2014 (Local Time) from KOKM Reporting Station
Clear Clear  
Wind Chill: 65°   Ceiling: Unl
Heat Index: 65°   Visibility: 10mi
Dew Point: 55°   Wind: 7mph
Humidity: 69%   Direction: 190°S
Pressure: 30.14"   Gusts: NA
Location:  35.4729°N, 95.9709°W
Report Text: KOKM 241515Z AUTO 19006KT 10SM CLR 19/13 A3014 RMK AO2 T01850128
Loading
Personal Weather Stations






























Interactive Weather Map
Tropical Storm Tracking
New forecast layout! Learn more

10-Day Weather Forecast

Advertisements
Track Severe Weather on mobile